Rio Rancho, NM (87124)

4:53 PM MST on January 21, 2017 (GMT -0700)
Loma Colorado | | Change Station
Active Advisory: Wind Advisory

Elev 5322 ft 35.26 °N, 106.66 °W | Updated 16 seconds ago

Partly Cloudy
Partly Cloudy
40.5 °F
Feels Like 37 °F
N
5.0
Wind Variable Wind from SW

Today
High -- | Low -- °F
--% Chance of Precip.
Yesterday
High -- | Low -- °F
Precip. -- in
Pressure 29.57 in
Visibility 10.0 miles
Clouds Few 5500 ft
Scattered Clouds 6500 ft
Windchill 37 °F
Dew Point 20 °F
Humidity 44%
Rainfall 0.18 in
Snow Depth Not available.
7:12 AM 5:24 PM
Waning Crescent, 31% visible
METAR KAEG 212347Z 27017G25KT 10SM FEW055 SCT065 03/M07 A2957
Pressure 29.57 in
Visibility 10.0 miles
Clouds Few 5500 ft
Scattered Clouds 6500 ft
Windchill 37 °F
Dew Point 20 °F
Humidity 44%
Rainfall 0.18 in
Snow Depth Not available.
7:12 AM 5:24 PM
Waning Crescent, 31% visible
METAR KAEG 212347Z 27017G25KT 10SM FEW055 SCT065 03/M07 A2957

Get Your Daily Forecast Email!

Thanks for signing up!

Be on the lookout for a verification email in your inbox.

You'll start receiving the daily forecast at 8 AM.

×

10-Day Weather Forecast

Almanac

Astronomy

Jan. 21, 2017 Rise Set
Actual Time
Civil Twilight
Nautical Twilight
Astronomical Twilight
Moon
Length of Visible Light
Length of Day
Tomorrow will be .
, % of the Moon is Illuminated

Today's Extremes

State Highs State Lows

Community

WunderPhotos

Upload Photos

1,962,540 photos uploaded!

WunderBlog® & News

Nearby

Air Quality

  Air Quality AQ Index Pollutant
Not available.

Snow Depth

Station Depth Elevation

Earthquake Activity

City Distance Mag. Time & Date
Minimum magnitude displayed is 2.5.

Coastal Water Temperatures

Place Temperature

Stations

Nearby Weather Stations

Station Location Temp. Windchill Dew Point Humidity Wind Precip. Elev Updated Type
                   

Watches & Warnings

Wind Advisory
Issued: 11:39 AM MST Jan. 21, 2017 – National Weather Service

... Wind Advisory remains in effect until 5 am MST Sunday...

* location... this includes the middle and lower Rio Grande... .
Estancia and upper Tularosa valleys as well as Quay... Curry
and Roosevelt counties and the west Central Highlands.

* Winds... west to northwest 25 to 35 mph with gusts near 50 mph.

* Timing... winds will continue to increase through the
afternoon... peak late this afternoon and early this
evening... and will slowly diminish after midnight.

* Visibility... may be locally reduced in areas of blowing dust.

* Local impacts... strong cross winds are expected on north to
south oriented roadways including Interstate 25 between
Albuquerque and Socorro. Difficult driving conditions are
expected for high profile vehicles.

Precautionary/preparedness actions...

Motorists should exercise caution while travelling. Sudden gusts
of wind may cause you to lose control of your vehicle. Extra
attention should be given to cross winds.